sensor_id;sensor_type;location;lat;lon;timestamp;P1;durP1;ratioP1;P2;durP2;ratioP2
12892;SDS011;6514;48.606;9.222;2022-08-04T00:01:02;2.67;;;1.90;;
12892;SDS011;6514;48.606;9.222;2022-08-04T00:03:34;3.03;;;1.97;;
12892;SDS011;6514;48.606;9.222;2022-08-04T00:06:08;3.90;;;1.90;;
12892;SDS011;6514;48.606;9.222;2022-08-04T00:08:43;2.23;;;2.03;;
12892;SDS011;6514;48.606;9.222;2022-08-04T00:11:13;3.60;;;2.40;;
12892;SDS011;6514;48.606;9.222;2022-08-04T00:13:48;2.37;;;2.17;;
12892;SDS011;6514;48.606;9.222;2022-08-04T00:16:20;2.27;;;2.00;;
12892;SDS011;6514;48.606;9.222;2022-08-04T00:18:49;3.10;;;2.03;;
12892;SDS011;6514;48.606;9.222;2022-08-04T00:21:23;2.90;;;2.07;;
12892;SDS011;6514;48.606;9.222;2022-08-04T00:23:56;2.20;;;2.00;;
12892;SDS011;6514;48.606;9.222;2022-08-04T00:26:30;2.13;;;1.93;;
12892;SDS011;6514;48.606;9.222;2022-08-04T00:29:01;3.20;;;2.13;;
12892;SDS011;6514;48.606;9.222;2022-08-04T00:31:28;3.43;;;2.10;;
12892;SDS011;6514;48.606;9.222;2022-08-04T00:33:55;2.70;;;1.70;;
12892;SDS011;6514;48.606;9.222;2022-08-04T00:36:26;2.50;;;2.00;;
12892;SDS011;6514;48.606;9.222;2022-08-04T00:38:58;2.57;;;1.90;;
12892;SDS011;6514;48.606;9.222;2022-08-04T00:41:33;2.77;;;2.00;;
12892;SDS011;6514;48.606;9.222;2022-08-04T00:44:12;1.90;;;1.73;;
12892;SDS011;6514;48.606;9.222;2022-08-04T01:50:50;3.47;;;1.80;;
12892;SDS011;6514;48.606;9.222;2022-08-04T01:53:18;2.17;;;1.97;;
12892;SDS011;6514;48.606;9.222;2022-08-04T01:55:45;3.70;;;2.20;;
12892;SDS011;6514;48.606;9.222;2022-08-04T01:58:16;2.90;;;2.30;;
12892;SDS011;6514;48.606;9.222;2022-08-04T02:00:45;2.00;;;1.90;;
12892;SDS011;6514;48.606;9.222;2022-08-04T02:03:23;2.70;;;1.97;;
12892;SDS011;6514;48.606;9.222;2022-08-04T02:05:52;2.33;;;2.13;;
12892;SDS011;6514;48.606;9.222;2022-08-04T02:08:35;2.30;;;2.00;;
12892;SDS011;6514;48.606;9.222;2022-08-04T02:11:16;3.27;;;2.20;;
12892;SDS011;6514;48.606;9.222;2022-08-04T02:13:50;2.47;;;2.27;;
12892;SDS011;6514;48.606;9.222;2022-08-04T02:16:26;2.40;;;2.20;;
12892;SDS011;6514;48.606;9.222;2022-08-04T02:18:59;3.43;;;2.17;;
12892;SDS011;6514;48.606;9.222;2022-08-04T02:21:32;4.57;;;2.27;;
12892;SDS011;6514;48.606;9.222;2022-08-04T02:24:01;3.10;;;2.27;;
12892;SDS011;6514;48.606;9.222;2022-08-04T02:26:31;2.37;;;2.17;;
12892;SDS011;6514;48.606;9.222;2022-08-04T02:29:03;2.23;;;2.10;;
12892;SDS011;6514;48.606;9.222;2022-08-04T02:31:38;2.63;;;2.10;;
12892;SDS011;6514;48.606;9.222;2022-08-04T02:34:24;3.07;;;2.47;;
12892;SDS011;6514;48.606;9.222;2022-08-04T02:36:57;2.83;;;2.20;;
12892;SDS011;6514;48.606;9.222;2022-08-04T02:39:25;2.70;;;2.00;;
12892;SDS011;6514;48.606;9.222;2022-08-04T02:41:59;3.40;;;1.93;;
12892;SDS011;6514;48.606;9.222;2022-08-04T02:44:28;3.50;;;2.20;;
12892;SDS011;6514;48.606;9.222;2022-08-04T02:46:57;2.07;;;1.80;;
12892;SDS011;6514;48.606;9.222;2022-08-04T02:49:26;2.30;;;2.10;;
12892;SDS011;6514;48.606;9.222;2022-08-04T02:51:57;2.67;;;2.00;;
12892;SDS011;6514;48.606;9.222;2022-08-04T02:54:26;3.53;;;2.00;;
12892;SDS011;6514;48.606;9.222;2022-08-04T02:56:57;1.83;;;1.73;;
12892;SDS011;6514;48.606;9.222;2022-08-04T02:59:26;1.90;;;1.70;;
12892;SDS011;6514;48.606;9.222;2022-08-04T03:01:55;4.83;;;1.83;;
12892;SDS011;6514;48.606;9.222;2022-08-04T03:04:28;2.20;;;2.00;;
12892;SDS011;6514;48.606;9.222;2022-08-04T03:07:24;2.20;;;2.00;;
12892;SDS011;6514;48.606;9.222;2022-08-04T03:10:26;2.43;;;1.73;;
12892;SDS011;6514;48.606;9.222;2022-08-04T03:13:31;1.70;;;1.60;;
12892;SDS011;6514;48.606;9.222;2022-08-04T03:16:29;2.10;;;1.70;;
12892;SDS011;6514;48.606;9.222;2022-08-04T03:19:17;4.47;;;1.97;;
12892;SDS011;6514;48.606;9.222;2022-08-04T03:25:23;3.83;;;1.90;;
12892;SDS011;6514;48.606;9.222;2022-08-04T03:35:02;2.13;;;1.90;;
12892;SDS011;6514;48.606;9.222;2022-08-04T03:37:55;1.93;;;1.67;;
12892;SDS011;6514;48.606;9.222;2022-08-04T03:40:33;2.13;;;1.90;;
12892;SDS011;6514;48.606;9.222;2022-08-04T03:43:27;2.40;;;2.07;;
12892;SDS011;6514;48.606;9.222;2022-08-04T03:52:11;2.33;;;1.80;;
12892;SDS011;6514;48.606;9.222;2022-08-04T03:55:17;5.17;;;2.10;;
12892;SDS011;6514;48.606;9.222;2022-08-04T03:58:16;2.47;;;2.10;;
12892;SDS011;6514;48.606;9.222;2022-08-04T04:00:59;2.73;;;1.83;;
12892;SDS011;6514;48.606;9.222;2022-08-04T04:03:41;3.00;;;2.10;;
12892;SDS011;6514;48.606;9.222;2022-08-04T04:06:40;3.73;;;2.03;;
12892;SDS011;6514;48.606;9.222;2022-08-04T04:09:25;2.30;;;2.10;;
12892;SDS011;6514;48.606;9.222;2022-08-04T04:12:09;2.37;;;2.17;;
12892;SDS011;6514;48.606;9.222;2022-08-04T04:15:02;2.70;;;2.13;;
12892;SDS011;6514;48.606;9.222;2022-08-04T04:17:44;2.40;;;2.20;;
12892;SDS011;6514;48.606;9.222;2022-08-04T04:20:28;2.67;;;2.43;;
12892;SDS011;6514;48.606;9.222;2022-08-04T04:23:09;3.37;;;2.37;;
12892;SDS011;6514;48.606;9.222;2022-08-04T04:25:49;2.10;;;2.00;;
12892;SDS011;6514;48.606;9.222;2022-08-04T04:28:41;2.87;;;2.40;;
12892;SDS011;6514;48.606;9.222;2022-08-04T04:34:19;3.20;;;2.37;;
12892;SDS011;6514;48.606;9.222;2022-08-04T04:37:00;2.50;;;2.30;;
12892;SDS011;6514;48.606;9.222;2022-08-04T04:39:47;3.37;;;2.70;;
12892;SDS011;6514;48.606;9.222;2022-08-04T04:42:28;5.70;;;2.40;;
12892;SDS011;6514;48.606;9.222;2022-08-04T04:45:16;3.20;;;2.90;;
12892;SDS011;6514;48.606;9.222;2022-08-04T04:47:53;4.03;;;2.80;;
12892;SDS011;6514;48.606;9.222;2022-08-04T04:50:25;3.00;;;2.80;;
12892;SDS011;6514;48.606;9.222;2022-08-04T04:53:02;3.13;;;2.83;;
12892;SDS011;6514;48.606;9.222;2022-08-04T04:55:38;4.07;;;2.63;;
12892;SDS011;6514;48.606;9.222;2022-08-04T04:58:10;3.47;;;2.70;;
12892;SDS011;6514;48.606;9.222;2022-08-04T05:00:48;2.87;;;2.27;;
12892;SDS011;6514;48.606;9.222;2022-08-04T05:03:39;2.40;;;2.20;;
12892;SDS011;6514;48.606;9.222;2022-08-04T05:06:23;4.80;;;2.47;;
12892;SDS011;6514;48.606;9.222;2022-08-04T05:09:06;3.80;;;2.50;;
12892;SDS011;6514;48.606;9.222;2022-08-04T05:15:00;2.67;;;2.37;;
12892;SDS011;6514;48.606;9.222;2022-08-04T05:17:32;3.00;;;2.27;;
12892;SDS011;6514;48.606;9.222;2022-08-04T05:20:03;2.63;;;2.20;;
12892;SDS011;6514;48.606;9.222;2022-08-04T05:22:34;3.60;;;2.33;;
12892;SDS011;6514;48.606;9.222;2022-08-04T05:25:06;3.10;;;2.50;;
12892;SDS011;6514;48.606;9.222;2022-08-04T05:27:44;3.70;;;2.10;;
12892;SDS011;6514;48.606;9.222;2022-08-04T05:30:15;5.83;;;2.43;;
12892;SDS011;6514;48.606;9.222;2022-08-04T05:32:47;3.27;;;2.03;;
12892;SDS011;6514;48.606;9.222;2022-08-04T05:35:22;3.77;;;2.33;;
12892;SDS011;6514;48.606;9.222;2022-08-04T05:37:55;4.83;;;2.50;;
12892;SDS011;6514;48.606;9.222;2022-08-04T05:40:24;2.67;;;2.40;;
12892;SDS011;6514;48.606;9.222;2022-08-04T05:42:52;5.00;;;2.30;;
12892;SDS011;6514;48.606;9.222;2022-08-04T05:45:21;2.90;;;2.70;;
12892;SDS011;6514;48.606;9.222;2022-08-04T05:47:51;3.63;;;2.57;;
12892;SDS011;6514;48.606;9.222;2022-08-04T05:50:19;3.37;;;2.40;;
12892;SDS011;6514;48.606;9.222;2022-08-04T05:52:47;3.20;;;2.77;;
12892;SDS011;6514;48.606;9.222;2022-08-04T05:55:15;4.80;;;2.90;;
12892;SDS011;6514;48.606;9.222;2022-08-04T05:57:43;3.00;;;2.70;;
12892;SDS011;6514;48.606;9.222;2022-08-04T06:00:12;3.60;;;2.80;;
12892;SDS011;6514;48.606;9.222;2022-08-04T06:02:42;3.80;;;3.03;;
12892;SDS011;6514;48.606;9.222;2022-08-04T06:05:13;2.80;;;2.60;;
12892;SDS011;6514;48.606;9.222;2022-08-04T06:07:41;2.90;;;2.50;;
12892;SDS011;6514;48.606;9.222;2022-08-04T06:10:09;2.57;;;2.37;;
12892;SDS011;6514;48.606;9.222;2022-08-04T06:12:37;2.63;;;2.40;;
12892;SDS011;6514;48.606;9.222;2022-08-04T06:15:10;2.70;;;2.50;;
12892;SDS011;6514;48.606;9.222;2022-08-04T06:17:39;3.70;;;2.83;;
12892;SDS011;6514;48.606;9.222;2022-08-04T06:20:13;6.27;;;2.40;;
12892;SDS011;6514;48.606;9.222;2022-08-04T06:22:41;3.10;;;2.67;;
12892;SDS011;6514;48.606;9.222;2022-08-04T06:25:12;2.70;;;2.50;;
12892;SDS011;6514;48.606;9.222;2022-08-04T06:27:44;6.00;;;2.50;;
12892;SDS011;6514;48.606;9.222;2022-08-04T06:30:12;4.23;;;2.67;;
12892;SDS011;6514;48.606;9.222;2022-08-04T06:32:43;2.53;;;1.93;;
12892;SDS011;6514;48.606;9.222;2022-08-04T06:35:21;2.47;;;2.27;;
12892;SDS011;6514;48.606;9.222;2022-08-04T06:37:50;3.77;;;2.60;;
12892;SDS011;6514;48.606;9.222;2022-08-04T06:40:20;2.90;;;2.30;;
12892;SDS011;6514;48.606;9.222;2022-08-04T06:42:49;3.10;;;2.30;;
12892;SDS011;6514;48.606;9.222;2022-08-04T06:45:18;3.53;;;2.20;;
12892;SDS011;6514;48.606;9.222;2022-08-04T06:47:45;4.17;;;2.47;;
12892;SDS011;6514;48.606;9.222;2022-08-04T06:50:14;2.60;;;2.40;;
12892;SDS011;6514;48.606;9.222;2022-08-04T06:52:44;3.27;;;2.30;;
12892;SDS011;6514;48.606;9.222;2022-08-04T06:55:11;3.57;;;2.40;;
12892;SDS011;6514;48.606;9.222;2022-08-04T06:57:39;3.03;;;2.40;;
12892;SDS011;6514;48.606;9.222;2022-08-04T07:00:08;2.83;;;2.40;;
12892;SDS011;6514;48.606;9.222;2022-08-04T07:02:38;2.53;;;2.20;;
12892;SDS011;6514;48.606;9.222;2022-08-04T07:05:06;3.77;;;2.37;;
12892;SDS011;6514;48.606;9.222;2022-08-04T07:07:35;2.70;;;2.50;;
12892;SDS011;6514;48.606;9.222;2022-08-04T07:10:05;3.50;;;2.40;;
12892;SDS011;6514;48.606;9.222;2022-08-04T07:12:33;4.73;;;2.40;;
12892;SDS011;6514;48.606;9.222;2022-08-04T07:15:02;2.30;;;2.10;;
12892;SDS011;6514;48.606;9.222;2022-08-04T07:17:30;4.90;;;2.00;;
12892;SDS011;6514;48.606;9.222;2022-08-04T07:19:59;2.40;;;2.00;;
12892;SDS011;6514;48.606;9.222;2022-08-04T07:22:26;4.67;;;2.13;;
12892;SDS011;6514;48.606;9.222;2022-08-04T07:24:55;3.33;;;2.20;;
12892;SDS011;6514;48.606;9.222;2022-08-04T07:27:24;3.80;;;2.10;;
12892;SDS011;6514;48.606;9.222;2022-08-04T07:29:51;2.43;;;2.00;;
12892;SDS011;6514;48.606;9.222;2022-08-04T07:32:19;6.57;;;2.17;;
12892;SDS011;6514;48.606;9.222;2022-08-04T07:34:47;4.20;;;1.93;;
12892;SDS011;6514;48.606;9.222;2022-08-04T07:37:15;3.57;;;1.80;;
12892;SDS011;6514;48.606;9.222;2022-08-04T07:39:43;2.13;;;1.80;;
12892;SDS011;6514;48.606;9.222;2022-08-04T07:42:10;3.53;;;2.10;;
12892;SDS011;6514;48.606;9.222;2022-08-04T07:44:39;2.20;;;2.00;;
12892;SDS011;6514;48.606;9.222;2022-08-04T07:47:06;3.77;;;1.90;;
12892;SDS011;6514;48.606;9.222;2022-08-04T07:49:33;5.67;;;1.87;;
12892;SDS011;6514;48.606;9.222;2022-08-04T07:52:01;3.20;;;2.20;;
12892;SDS011;6514;48.606;9.222;2022-08-04T07:54:29;3.10;;;1.90;;
12892;SDS011;6514;48.606;9.222;2022-08-04T07:56:56;2.53;;;1.80;;
12892;SDS011;6514;48.606;9.222;2022-08-04T07:59:23;2.20;;;1.87;;
12892;SDS011;6514;48.606;9.222;2022-08-04T08:01:52;2.47;;;1.80;;
12892;SDS011;6514;48.606;9.222;2022-08-04T08:04:19;2.23;;;1.77;;
12892;SDS011;6514;48.606;9.222;2022-08-04T08:06:47;3.10;;;1.50;;
12892;SDS011;6514;48.606;9.222;2022-08-04T08:09:16;2.00;;;1.80;;
12892;SDS011;6514;48.606;9.222;2022-08-04T08:11:45;4.23;;;1.90;;
12892;SDS011;6514;48.606;9.222;2022-08-04T08:14:15;2.30;;;1.50;;
12892;SDS011;6514;48.606;9.222;2022-08-04T08:16:42;4.43;;;1.73;;
12892;SDS011;6514;48.606;9.222;2022-08-04T08:19:11;2.10;;;1.77;;
12892;SDS011;6514;48.606;9.222;2022-08-04T08:21:38;2.20;;;1.53;;
12892;SDS011;6514;48.606;9.222;2022-08-04T08:24:06;4.32;;;1.90;;
12892;SDS011;6514;48.606;9.222;2022-08-04T08:26:33;2.30;;;1.70;;
12892;SDS011;6514;48.606;9.222;2022-08-04T08:29:01;1.92;;;1.80;;
12892;SDS011;6514;48.606;9.222;2022-08-04T08:31:29;3.40;;;1.90;;
12892;SDS011;6514;48.606;9.222;2022-08-04T08:33:56;2.53;;;1.92;;
12892;SDS011;6514;48.606;9.222;2022-08-04T08:36:28;3.95;;;1.90;;
12892;SDS011;6514;48.606;9.222;2022-08-04T08:39:01;1.75;;;1.42;;
12892;SDS011;6514;48.606;9.222;2022-08-04T08:44:45;2.70;;;1.80;;
12892;SDS011;6514;48.606;9.222;2022-08-04T08:47:42;3.17;;;1.90;;
12892;SDS011;6514;48.606;9.222;2022-08-04T08:50:36;3.33;;;1.70;;
12892;SDS011;6514;48.606;9.222;2022-08-04T08:53:26;2.30;;;1.50;;
12892;SDS011;6514;48.606;9.222;2022-08-04T08:56:07;6.70;;;1.63;;
12892;SDS011;6514;48.606;9.222;2022-08-04T08:58:45;5.82;;;1.60;;
12892;SDS011;6514;48.606;9.222;2022-08-04T09:01:30;3.58;;;1.70;;
12892;SDS011;6514;48.606;9.222;2022-08-04T09:04:26;2.65;;;1.60;;
12892;SDS011;6514;48.606;9.222;2022-08-04T09:07:12;2.95;;;1.67;;
12892;SDS011;6514;48.606;9.222;2022-08-04T09:10:02;1.50;;;1.40;;
12892;SDS011;6514;48.606;9.222;2022-08-04T09:12:35;1.60;;;1.50;;
12892;SDS011;6514;48.606;9.222;2022-08-04T09:15:07;2.20;;;1.75;;
12892;SDS011;6514;48.606;9.222;2022-08-04T09:17:40;1.70;;;1.40;;
12892;SDS011;6514;48.606;9.222;2022-08-04T09:20:21;1.70;;;1.50;;
12892;SDS011;6514;48.606;9.222;2022-08-04T09:22:59;1.58;;;1.42;;
12892;SDS011;6514;48.606;9.222;2022-08-04T09:25:36;4.80;;;1.70;;
12892;SDS011;6514;48.606;9.222;2022-08-04T09:28:06;1.90;;;1.70;;
12892;SDS011;6514;48.606;9.222;2022-08-04T09:30:42;2.33;;;1.67;;
12892;SDS011;6514;48.606;9.222;2022-08-04T09:33:15;2.58;;;2.00;;
12892;SDS011;6514;48.606;9.222;2022-08-04T09:35:52;2.03;;;1.50;;
12892;SDS011;6514;48.606;9.222;2022-08-04T09:38:26;2.67;;;1.50;;
12892;SDS011;6514;48.606;9.222;2022-08-04T09:41:02;5.43;;;1.77;;
12892;SDS011;6514;48.606;9.222;2022-08-04T09:43:41;1.60;;;1.40;;
12892;SDS011;6514;48.606;9.222;2022-08-04T09:46:15;1.73;;;1.50;;
12892;SDS011;6514;48.606;9.222;2022-08-04T09:48:50;2.40;;;1.85;;
12892;SDS011;6514;48.606;9.222;2022-08-04T09:51:24;3.45;;;1.58;;
12892;SDS011;6514;48.606;9.222;2022-08-04T09:54:05;3.25;;;1.60;;
12892;SDS011;6514;48.606;9.222;2022-08-04T09:56:44;3.25;;;1.60;;
12892;SDS011;6514;48.606;9.222;2022-08-04T09:59:21;1.73;;;1.63;;
12892;SDS011;6514;48.606;9.222;2022-08-04T10:01:52;1.98;;;1.40;;
12892;SDS011;6514;48.606;9.222;2022-08-04T10:04:22;2.83;;;1.70;;
12892;SDS011;6514;48.606;9.222;2022-08-04T10:06:56;2.10;;;1.80;;
12892;SDS011;6514;48.606;9.222;2022-08-04T10:09:42;4.88;;;1.65;;
12892;SDS011;6514;48.606;9.222;2022-08-04T10:12:26;1.70;;;1.60;;
12892;SDS011;6514;48.606;9.222;2022-08-04T10:15:08;1.60;;;1.50;;
12892;SDS011;6514;48.606;9.222;2022-08-04T10:17:47;3.38;;;1.60;;
12892;SDS011;6514;48.606;9.222;2022-08-04T10:20:29;2.38;;;1.50;;
12892;SDS011;6514;48.606;9.222;2022-08-04T10:23:17;1.80;;;1.50;;
12892;SDS011;6514;48.606;9.222;2022-08-04T10:25:51;1.90;;;1.48;;
12892;SDS011;6514;48.606;9.222;2022-08-04T10:28:30;2.38;;;1.70;;
12892;SDS011;6514;48.606;9.222;2022-08-04T10:31:03;3.03;;;1.30;;
12892;SDS011;6514;48.606;9.222;2022-08-04T10:33:37;1.42;;;1.27;;
12892;SDS011;6514;48.606;9.222;2022-08-04T10:36:10;1.58;;;1.40;;
12892;SDS011;6514;48.606;9.222;2022-08-04T10:38:45;1.30;;;1.20;;
12892;SDS011;6514;48.606;9.222;2022-08-04T10:41:24;1.50;;;1.38;;
12892;SDS011;6514;48.606;9.222;2022-08-04T10:44:00;3.88;;;1.27;;
12892;SDS011;6514;48.606;9.222;2022-08-04T10:46:44;1.33;;;1.00;;
12892;SDS011;6514;48.606;9.222;2022-08-04T10:49:20;2.67;;;1.70;;
12892;SDS011;6514;48.606;9.222;2022-08-04T10:51:50;1.35;;;1.20;;
12892;SDS011;6514;48.606;9.222;2022-08-04T10:54:25;4.28;;;1.50;;
12892;SDS011;6514;48.606;9.222;2022-08-04T10:56:58;1.80;;;1.20;;
12892;SDS011;6514;48.606;9.222;2022-08-04T10:59:33;2.97;;;1.27;;
12892;SDS011;6514;48.606;9.222;2022-08-04T11:02:09;2.17;;;1.10;;
12892;SDS011;6514;48.606;9.222;2022-08-04T11:04:43;2.00;;;1.30;;
12892;SDS011;6514;48.606;9.222;2022-08-04T11:07:13;3.97;;;1.30;;
12892;SDS011;6514;48.606;9.222;2022-08-04T11:09:41;2.22;;;1.20;;
12892;SDS011;6514;48.606;9.222;2022-08-04T11:12:13;1.77;;;1.30;;
12892;SDS011;6514;48.606;9.222;2022-08-04T11:14:46;1.85;;;1.35;;
12892;SDS011;6514;48.606;9.222;2022-08-04T11:17:18;3.20;;;1.40;;
12892;SDS011;6514;48.606;9.222;2022-08-04T11:19:48;2.10;;;1.73;;
12892;SDS011;6514;48.606;9.222;2022-08-04T11:22:25;1.75;;;1.20;;
12892;SDS011;6514;48.606;9.222;2022-08-04T11:24:53;2.53;;;1.30;;
12892;SDS011;6514;48.606;9.222;2022-08-04T11:27:28;1.25;;;1.17;;
12892;SDS011;6514;48.606;9.222;2022-08-04T11:30:04;2.85;;;1.75;;
12892;SDS011;6514;48.606;9.222;2022-08-04T11:32:34;2.65;;;1.40;;
12892;SDS011;6514;48.606;9.222;2022-08-04T11:35:08;2.55;;;1.50;;
12892;SDS011;6514;48.606;9.222;2022-08-04T11:37:42;1.70;;;1.42;;
12892;SDS011;6514;48.606;9.222;2022-08-04T11:40:17;1.50;;;1.40;;
12892;SDS011;6514;48.606;9.222;2022-08-04T11:42:51;2.20;;;1.30;;
12892;SDS011;6514;48.606;9.222;2022-08-04T11:45:26;1.85;;;1.75;;
12892;SDS011;6514;48.606;9.222;2022-08-04T11:47:57;2.88;;;1.40;;
12892;SDS011;6514;48.606;9.222;2022-08-04T11:50:31;1.30;;;1.20;;
12892;SDS011;6514;48.606;9.222;2022-08-04T11:53:02;1.75;;;1.42;;
12892;SDS011;6514;48.606;9.222;2022-08-04T11:55:31;2.97;;;1.50;;
12892;SDS011;6514;48.606;9.222;2022-08-04T11:58:00;2.15;;;1.52;;
12892;SDS011;6514;48.606;9.222;2022-08-04T12:00:28;3.10;;;1.30;;
12892;SDS011;6514;48.606;9.222;2022-08-04T12:02:59;2.35;;;1.40;;
12892;SDS011;6514;48.606;9.222;2022-08-04T12:05:34;1.58;;;1.48;;
12892;SDS011;6514;48.606;9.222;2022-08-04T12:08:11;1.65;;;1.40;;
12892;SDS011;6514;48.606;9.222;2022-08-04T12:10:52;1.60;;;1.50;;
12892;SDS011;6514;48.606;9.222;2022-08-04T12:13:34;1.95;;;1.42;;
12892;SDS011;6514;48.606;9.222;2022-08-04T12:16:13;3.28;;;1.40;;
12892;SDS011;6514;48.606;9.222;2022-08-04T12:18:43;1.63;;;1.40;;
12892;SDS011;6514;48.606;9.222;2022-08-04T12:21:17;2.58;;;1.30;;
12892;SDS011;6514;48.606;9.222;2022-08-04T12:23:51;1.70;;;1.40;;
12892;SDS011;6514;48.606;9.222;2022-08-04T12:26:22;1.40;;;1.30;;
12892;SDS011;6514;48.606;9.222;2022-08-04T12:28:56;1.60;;;1.30;;
12892;SDS011;6514;48.606;9.222;2022-08-04T12:31:28;3.40;;;1.30;;
12892;SDS011;6514;48.606;9.222;2022-08-04T12:34:01;3.08;;;1.50;;
12892;SDS011;6514;48.606;9.222;2022-08-04T12:36:34;3.78;;;1.58;;
12892;SDS011;6514;48.606;9.222;2022-08-04T12:39:09;1.77;;;1.60;;
12892;SDS011;6514;48.606;9.222;2022-08-04T12:41:41;2.50;;;1.40;;
12892;SDS011;6514;48.606;9.222;2022-08-04T12:44:17;2.55;;;1.38;;
12892;SDS011;6514;48.606;9.222;2022-08-04T12:46:47;2.25;;;1.30;;
12892;SDS011;6514;48.606;9.222;2022-08-04T12:49:15;3.13;;;1.50;;
12892;SDS011;6514;48.606;9.222;2022-08-04T12:51:43;1.88;;;1.20;;
12892;SDS011;6514;48.606;9.222;2022-08-04T12:54:11;2.13;;;1.50;;
12892;SDS011;6514;48.606;9.222;2022-08-04T12:56:39;1.88;;;1.60;;
12892;SDS011;6514;48.606;9.222;2022-08-04T12:59:07;2.22;;;1.50;;
12892;SDS011;6514;48.606;9.222;2022-08-04T13:01:35;3.28;;;1.42;;
12892;SDS011;6514;48.606;9.222;2022-08-04T13:04:11;1.70;;;1.60;;
12892;SDS011;6514;48.606;9.222;2022-08-04T13:06:40;1.88;;;1.60;;
12892;SDS011;6514;48.606;9.222;2022-08-04T13:09:10;1.60;;;1.50;;
12892;SDS011;6514;48.606;9.222;2022-08-04T13:11:43;2.42;;;1.40;;
12892;SDS011;6514;48.606;9.222;2022-08-04T13:14:15;1.35;;;1.25;;
12892;SDS011;6514;48.606;9.222;2022-08-04T13:16:43;2.63;;;1.40;;
12892;SDS011;6514;48.606;9.222;2022-08-04T13:19:11;1.50;;;1.40;;
12892;SDS011;6514;48.606;9.222;2022-08-04T13:21:39;1.70;;;1.60;;
12892;SDS011;6514;48.606;9.222;2022-08-04T13:24:10;1.95;;;1.50;;
12892;SDS011;6514;48.606;9.222;2022-08-04T13:26:48;2.45;;;1.52;;
12892;SDS011;6514;48.606;9.222;2022-08-04T13:29:18;1.50;;;1.40;;
12892;SDS011;6514;48.606;9.222;2022-08-04T13:31:46;1.50;;;1.40;;
12892;SDS011;6514;48.606;9.222;2022-08-04T13:34:16;2.95;;;1.50;;
12892;SDS011;6514;48.606;9.222;2022-08-04T13:36:45;2.75;;;1.50;;
12892;SDS011;6514;48.606;9.222;2022-08-04T13:39:16;4.00;;;1.70;;
12892;SDS011;6514;48.606;9.222;2022-08-04T13:41:45;2.08;;;1.40;;
12892;SDS011;6514;48.606;9.222;2022-08-04T13:44:17;2.88;;;1.70;;
12892;SDS011;6514;48.606;9.222;2022-08-04T13:46:46;1.77;;;1.63;;
12892;SDS011;6514;48.606;9.222;2022-08-04T13:49:17;2.00;;;1.58;;
12892;SDS011;6514;48.606;9.222;2022-08-04T13:51:48;1.88;;;1.73;;
12892;SDS011;6514;48.606;9.222;2022-08-04T13:54:18;1.70;;;1.60;;
12892;SDS011;6514;48.606;9.222;2022-08-04T13:56:46;3.08;;;1.50;;
12892;SDS011;6514;48.606;9.222;2022-08-04T13:59:16;1.92;;;1.48;;
12892;SDS011;6514;48.606;9.222;2022-08-04T14:01:46;1.77;;;1.67;;
12892;SDS011;6514;48.606;9.222;2022-08-04T14:04:25;3.08;;;1.58;;
12892;SDS011;6514;48.606;9.222;2022-08-04T14:06:58;5.22;;;1.85;;
12892;SDS011;6514;48.606;9.222;2022-08-04T14:09:32;1.90;;;1.60;;
12892;SDS011;6514;48.606;9.222;2022-08-04T14:12:06;3.45;;;1.67;;
12892;SDS011;6514;48.606;9.222;2022-08-04T14:14:35;1.80;;;1.70;;
12892;SDS011;6514;48.606;9.222;2022-08-04T14:17:10;2.65;;;1.60;;
12892;SDS011;6514;48.606;9.222;2022-08-04T14:19:50;1.77;;;1.50;;
12892;SDS011;6514;48.606;9.222;2022-08-04T14:22:28;1.60;;;1.50;;
12892;SDS011;6514;48.606;9.222;2022-08-04T14:24:58;1.98;;;1.52;;
12892;SDS011;6514;48.606;9.222;2022-08-04T14:27:29;1.45;;;1.35;;
12892;SDS011;6514;48.606;9.222;2022-08-04T14:30:05;2.38;;;1.70;;
12892;SDS011;6514;48.606;9.222;2022-08-04T14:32:33;1.90;;;1.70;;
12892;SDS011;6514;48.606;9.222;2022-08-04T14:35:21;2.80;;;1.60;;
12892;SDS011;6514;48.606;9.222;2022-08-04T14:37:53;2.28;;;1.50;;
12892;SDS011;6514;48.606;9.222;2022-08-04T14:40:23;1.83;;;1.30;;
12892;SDS011;6514;48.606;9.222;2022-08-04T14:42:52;1.60;;;1.50;;
12892;SDS011;6514;48.606;9.222;2022-08-04T14:45:23;1.52;;;1.42;;
12892;SDS011;6514;48.606;9.222;2022-08-04T14:47:53;2.08;;;1.55;;
12892;SDS011;6514;48.606;9.222;2022-08-04T14:50:33;1.48;;;1.35;;
12892;SDS011;6514;48.606;9.222;2022-08-04T14:53:02;1.88;;;1.50;;
12892;SDS011;6514;48.606;9.222;2022-08-04T14:55:30;1.95;;;1.75;;
12892;SDS011;6514;48.606;9.222;2022-08-04T14:57:58;1.50;;;1.33;;
12892;SDS011;6514;48.606;9.222;2022-08-04T15:00:25;2.50;;;1.50;;
12892;SDS011;6514;48.606;9.222;2022-08-04T15:02:54;3.30;;;1.67;;
12892;SDS011;6514;48.606;9.222;2022-08-04T15:05:28;1.67;;;1.52;;
12892;SDS011;6514;48.606;9.222;2022-08-04T15:07:57;3.15;;;1.50;;
12892;SDS011;6514;48.606;9.222;2022-08-04T15:10:24;2.15;;;1.95;;
12892;SDS011;6514;48.606;9.222;2022-08-04T15:12:51;1.83;;;1.70;;
12892;SDS011;6514;48.606;9.222;2022-08-04T15:15:19;2.10;;;1.80;;
12892;SDS011;6514;48.606;9.222;2022-08-04T15:17:47;4.72;;;1.80;;
12892;SDS011;6514;48.606;9.222;2022-08-04T15:20:17;2.22;;;1.63;;
12892;SDS011;6514;48.606;9.222;2022-08-04T15:22:45;1.95;;;1.65;;
12892;SDS011;6514;48.606;9.222;2022-08-04T15:25:13;2.72;;;1.60;;
12892;SDS011;6514;48.606;9.222;2022-08-04T15:27:41;1.60;;;1.50;;
12892;SDS011;6514;48.606;9.222;2022-08-04T15:30:13;2.67;;;1.70;;
12892;SDS011;6514;48.606;9.222;2022-08-04T15:32:45;2.08;;;1.88;;
12892;SDS011;6514;48.606;9.222;2022-08-04T15:35:16;1.70;;;1.60;;
12892;SDS011;6514;48.606;9.222;2022-08-04T15:37:48;1.88;;;1.45;;
12892;SDS011;6514;48.606;9.222;2022-08-04T15:40:26;2.05;;;1.90;;
12892;SDS011;6514;48.606;9.222;2022-08-04T15:43:01;1.98;;;1.77;;
12892;SDS011;6514;48.606;9.222;2022-08-04T15:45:46;3.03;;;1.80;;
12892;SDS011;6514;48.606;9.222;2022-08-04T15:51:06;2.53;;;2.38;;
12892;SDS011;6514;48.606;9.222;2022-08-04T15:56:45;2.55;;;2.28;;
12892;SDS011;6514;48.606;9.222;2022-08-04T15:59:13;1.95;;;1.80;;
12892;SDS011;6514;48.606;9.222;2022-08-04T16:01:40;2.45;;;1.92;;
12892;SDS011;6514;48.606;9.222;2022-08-04T16:04:21;2.97;;;1.70;;
12892;SDS011;6514;48.606;9.222;2022-08-04T16:06:49;2.35;;;2.00;;
12892;SDS011;6514;48.606;9.222;2022-08-04T16:09:26;9.70;;;2.13;;
12892;SDS011;6514;48.606;9.222;2022-08-04T16:11:54;18.10;;;2.25;;
12892;SDS011;6514;48.606;9.222;2022-08-04T16:14:32;12.60;;;1.92;;
12892;SDS011;6514;48.606;9.222;2022-08-04T16:17:16;5.70;;;1.95;;
12892;SDS011;6514;48.606;9.222;2022-08-04T16:19:45;3.92;;;1.77;;
12892;SDS011;6514;48.606;9.222;2022-08-04T16:22:31;2.58;;;1.65;;
12892;SDS011;6514;48.606;9.222;2022-08-04T16:25:01;7.00;;;1.75;;
12892;SDS011;6514;48.606;9.222;2022-08-04T16:27:37;4.70;;;1.90;;
12892;SDS011;6514;48.606;9.222;2022-08-04T16:30:07;3.75;;;1.73;;
12892;SDS011;6514;48.606;9.222;2022-08-04T16:32:43;14.63;;;2.10;;
12892;SDS011;6514;48.606;9.222;2022-08-04T16:35:20;8.82;;;2.20;;
12892;SDS011;6514;48.606;9.222;2022-08-04T16:37:51;3.75;;;2.13;;
12892;SDS011;6514;48.606;9.222;2022-08-04T16:40:27;3.95;;;1.92;;
12892;SDS011;6514;48.606;9.222;2022-08-04T16:43:01;4.20;;;2.25;;
12892;SDS011;6514;48.606;9.222;2022-08-04T16:45:47;4.60;;;1.80;;
12892;SDS011;6514;48.606;9.222;2022-08-04T16:48:17;7.57;;;6.95;;
12892;SDS011;6514;48.606;9.222;2022-08-04T16:50:55;7.35;;;3.53;;
12892;SDS011;6514;48.606;9.222;2022-08-04T16:53:26;3.88;;;3.00;;
12892;SDS011;6514;48.606;9.222;2022-08-04T16:55:57;1.70;;;1.60;;
12892;SDS011;6514;48.606;9.222;2022-08-04T16:58:27;2.15;;;1.70;;
12892;SDS011;6514;48.606;9.222;2022-08-04T17:00:56;4.07;;;2.10;;
12892;SDS011;6514;48.606;9.222;2022-08-04T17:03:24;5.25;;;2.90;;
12892;SDS011;6514;48.606;9.222;2022-08-04T17:06:03;3.30;;;2.00;;
12892;SDS011;6514;48.606;9.222;2022-08-04T17:08:32;2.73;;;1.80;;
12892;SDS011;6514;48.606;9.222;2022-08-04T17:11:00;2.93;;;2.00;;
12892;SDS011;6514;48.606;9.222;2022-08-04T17:13:29;2.10;;;1.90;;
12892;SDS011;6514;48.606;9.222;2022-08-04T17:15:59;5.73;;;2.30;;